createdAt,value
2022-11-25T00:01:08.287Z,23.53
2022-11-25T00:03:37.197Z,23.63
2022-11-25T00:06:13.473Z,23.40
2022-11-25T00:08:42.188Z,21.97
2022-11-25T00:11:12.498Z,24.53
2022-11-25T00:13:41.282Z,20.67
2022-11-25T00:16:11.678Z,32.37
2022-11-25T00:18:39.928Z,26.17
2022-11-25T00:21:08.906Z,23.27
2022-11-25T00:23:37.771Z,23.63
2022-11-25T00:26:12.436Z,25.67
2022-11-25T00:28:41.571Z,26.53
2022-11-25T00:31:11.376Z,28.77
2022-11-25T00:33:40.499Z,25.50
2022-11-25T00:36:17.223Z,21.00
2022-11-25T00:38:45.677Z,24.43
2022-11-25T00:41:33.063Z,21.33
2022-11-25T00:44:18.653Z,24.77
2022-11-25T00:46:46.759Z,22.83
2022-11-25T00:49:14.993Z,22.37
2022-11-25T00:51:42.985Z,21.33
2022-11-25T00:54:10.998Z,23.00
2022-11-25T00:56:41.131Z,24.97
2022-11-25T00:59:09.233Z,21.03
2022-11-25T01:01:37.898Z,25.87
2022-11-25T01:04:06.780Z,18.23
2022-11-25T01:06:35.234Z,23.90
2022-11-25T01:09:03.539Z,22.07
2022-11-25T01:11:31.625Z,26.40
2022-11-25T01:14:01.855Z,22.23
2022-11-25T01:16:31.249Z,29.57
2022-11-25T01:19:00.084Z,26.13
2022-11-25T01:21:29.804Z,22.37
2022-11-25T01:23:59.704Z,26.10
2022-11-25T01:26:28.395Z,25.73
2022-11-25T01:28:58.023Z,22.37
2022-11-25T01:31:29.605Z,21.70
2022-11-25T01:33:59.503Z,23.70
2022-11-25T01:36:28.245Z,23.20
2022-11-25T01:38:58.000Z,22.77
2022-11-25T01:41:28.030Z,22.23
2022-11-25T01:44:12.275Z,22.30
2022-11-25T01:46:58.198Z,20.53
2022-11-25T01:49:31.508Z,22.40
2022-11-25T01:52:03.958Z,21.53
2022-11-25T01:54:36.975Z,20.90
2022-11-25T01:57:10.088Z,22.03
2022-11-25T01:59:45.368Z,24.00
2022-11-25T02:02:15.905Z,21.20
2022-11-25T02:04:45.797Z,17.67
2022-11-25T02:07:20.637Z,21.17
2022-11-25T02:09:49.688Z,22.90
2022-11-25T02:12:21.087Z,22.03
2022-11-25T02:14:51.814Z,23.23
2022-11-25T02:17:21.524Z,24.53
2022-11-25T02:20:01.023Z,27.17
2022-11-25T02:22:45.664Z,25.70
2022-11-25T02:25:18.099Z,28.27
2022-11-25T02:27:48.788Z,29.37
2022-11-25T02:30:16.807Z,23.03
2022-11-25T02:32:45.503Z,27.33
2022-11-25T02:35:29.470Z,31.23
2022-11-25T02:38:07.953Z,31.43
2022-11-25T02:40:43.283Z,28.03
2022-11-25T02:43:11.369Z,20.93
2022-11-25T02:45:48.935Z,23.43
2022-11-25T02:48:17.219Z,23.67
2022-11-25T02:50:45.477Z,18.90
2022-11-25T02:53:13.567Z,26.80
2022-11-25T02:55:43.072Z,29.87
2022-11-25T02:58:11.276Z,19.77
2022-11-25T03:00:39.380Z,23.97
2022-11-25T03:03:07.478Z,21.13
2022-11-25T03:05:35.547Z,24.40
2022-11-25T03:08:03.940Z,24.43
2022-11-25T03:10:32.786Z,25.20
2022-11-25T03:13:02.372Z,21.93
2022-11-25T03:15:30.369Z,22.70
2022-11-25T03:17:58.759Z,20.80
2022-11-25T03:20:26.941Z,22.93
2022-11-25T03:22:55.157Z,22.17
2022-11-25T03:25:23.178Z,23.57
2022-11-25T03:27:51.201Z,20.77
2022-11-25T03:30:22.676Z,25.70
2022-11-25T03:32:50.861Z,25.20
2022-11-25T03:35:19.218Z,20.77
2022-11-25T03:37:47.989Z,23.70
2022-11-25T03:40:17.415Z,25.53
2022-11-25T03:42:46.054Z,22.13
2022-11-25T03:45:15.247Z,27.83
2022-11-25T03:47:45.356Z,23.73
2022-11-25T03:50:16.038Z,20.90
2022-11-25T03:52:44.330Z,24.40
2022-11-25T03:55:13.176Z,24.03
2022-11-25T03:57:41.833Z,24.17
2022-11-25T04:00:12.367Z,23.70
2022-11-25T04:02:40.434Z,27.53
2022-11-25T04:05:10.499Z,24.43
2022-11-25T04:07:38.601Z,22.30
2022-11-25T04:10:07.993Z,19.23
2022-11-25T04:12:47.854Z,23.80
2022-11-25T04:15:16.609Z,22.93
2022-11-25T04:17:45.154Z,20.70
2022-11-25T04:20:15.910Z,20.17
2022-11-25T04:22:44.299Z,21.57
2022-11-25T04:25:12.738Z,19.27
2022-11-25T04:27:40.833Z,21.73
2022-11-25T04:30:10.390Z,19.40
2022-11-25T04:32:39.242Z,21.40
2022-11-25T04:35:07.934Z,18.27
2022-11-25T04:37:37.508Z,20.10
2022-11-25T04:40:06.742Z,19.20
2022-11-25T04:42:36.588Z,18.80
2022-11-25T04:45:22.464Z,20.90
2022-11-25T04:47:52.013Z,19.50
2022-11-25T04:50:21.705Z,18.27
2022-11-25T04:52:51.163Z,19.00
2022-11-25T04:55:19.304Z,19.60
2022-11-25T04:57:47.404Z,18.77
2022-11-25T05:00:15.117Z,16.63
2022-11-25T05:02:43.204Z,17.30
2022-11-25T05:05:11.631Z,17.97
2022-11-25T05:07:39.732Z,17.37
2022-11-25T05:10:10.283Z,21.20
2022-11-25T05:12:38.668Z,15.37
2022-11-25T05:15:08.027Z,14.27
2022-11-25T05:17:36.502Z,15.17
2022-11-25T05:20:05.462Z,16.27
2022-11-25T05:22:35.583Z,18.07
2022-11-25T05:25:05.634Z,16.53
2022-11-25T05:27:35.023Z,15.70
2022-11-25T05:30:03.063Z,15.50
2022-11-25T05:32:30.993Z,14.90
2022-11-25T05:34:58.942Z,14.00
2022-11-25T05:37:26.913Z,15.30
2022-11-25T05:39:54.957Z,16.73
2022-11-25T05:42:22.888Z,14.63
2022-11-25T05:44:52.180Z,14.23
2022-11-25T05:47:20.118Z,17.37
2022-11-25T05:49:48.091Z,14.10
2022-11-25T05:52:16.031Z,15.07
2022-11-25T05:54:43.955Z,15.67
2022-11-25T05:57:11.992Z,17.07
2022-11-25T05:59:39.969Z,15.60
2022-11-25T06:02:09.341Z,13.23
2022-11-25T06:04:37.703Z,13.87
2022-11-25T06:07:06.102Z,13.47
2022-11-25T06:09:34.158Z,14.90
2022-11-25T06:12:02.161Z,13.93
2022-11-25T06:14:30.265Z,15.50
2022-11-25T06:16:58.207Z,12.37
2022-11-25T06:19:27.520Z,13.00
2022-11-25T06:21:55.456Z,14.13
2022-11-25T06:24:23.503Z,15.30
2022-11-25T06:26:51.452Z,12.07
2022-11-25T06:29:19.395Z,13.77
2022-11-25T06:31:47.379Z,15.00
2022-11-25T06:34:15.336Z,12.03
2022-11-25T06:36:44.681Z,14.47
2022-11-25T06:39:12.703Z,13.50
2022-11-25T06:41:40.647Z,12.60
2022-11-25T06:44:08.583Z,14.07
2022-11-25T06:46:36.600Z,11.93
2022-11-25T06:49:04.803Z,13.97
2022-11-25T06:51:32.835Z,13.30
2022-11-25T06:54:02.150Z,13.93
2022-11-25T06:56:30.551Z,13.97
2022-11-25T06:58:58.506Z,13.63
2022-11-25T07:01:28.308Z,13.53
2022-11-25T07:03:59.087Z,12.97
2022-11-25T07:06:27.860Z,13.97
2022-11-25T07:08:56.289Z,14.57
2022-11-25T07:11:27.536Z,14.97
2022-11-25T07:13:58.413Z,15.33
2022-11-25T07:16:26.897Z,14.33
2022-11-25T07:18:55.183Z,13.80
2022-11-25T07:21:25.011Z,22.30
2022-11-25T07:23:54.179Z,15.70
2022-11-25T07:26:24.119Z,18.90
2022-11-25T07:28:55.059Z,18.03
2022-11-25T07:31:28.769Z,17.83
2022-11-25T07:34:01.191Z,21.03
2022-11-25T07:36:30.616Z,16.73
2022-11-25T07:38:59.639Z,18.60
2022-11-25T07:41:29.496Z,14.20
2022-11-25T07:44:00.380Z,14.10
2022-11-25T07:46:30.683Z,21.13
2022-11-25T07:49:01.197Z,16.50
2022-11-25T07:51:31.184Z,16.67
2022-11-25T07:54:01.094Z,21.50
2022-11-25T07:56:30.050Z,19.47
2022-11-25T07:58:59.410Z,16.90
2022-11-25T08:01:27.497Z,21.00
2022-11-25T08:03:56.561Z,19.90
2022-11-25T08:06:27.117Z,14.67
2022-11-25T08:08:56.383Z,15.23
2022-11-25T08:11:26.172Z,15.77
2022-11-25T08:13:54.363Z,14.33
2022-11-25T08:16:26.344Z,14.70
2022-11-25T08:18:55.169Z,15.17
2022-11-25T08:21:23.147Z,14.80
2022-11-25T08:23:52.565Z,13.13
2022-11-25T08:26:22.936Z,13.73
2022-11-25T08:28:51.343Z,13.83
2022-11-25T08:31:22.363Z,14.07
2022-11-25T08:33:53.017Z,12.73
2022-11-25T08:36:21.884Z,14.03
2022-11-25T08:38:51.862Z,15.07
2022-11-25T08:41:23.126Z,15.10
2022-11-25T08:43:51.183Z,13.67
2022-11-25T08:46:22.274Z,12.20
2022-11-25T08:48:52.064Z,15.80
2022-11-25T08:51:23.191Z,17.30
2022-11-25T08:53:52.206Z,16.60
2022-11-25T08:56:25.920Z,18.37
2022-11-25T08:58:54.471Z,14.43
2022-11-25T09:01:23.772Z,13.53
2022-11-25T09:03:56.590Z,16.70
2022-11-25T09:06:26.175Z,15.60
2022-11-25T09:08:57.630Z,17.37
2022-11-25T09:11:26.203Z,17.00
2022-11-25T09:13:54.738Z,15.50
2022-11-25T09:16:22.761Z,21.17
2022-11-25T09:18:55.881Z,18.13
2022-11-25T09:21:25.229Z,14.20
2022-11-25T09:23:54.637Z,21.57
2022-11-25T09:26:25.581Z,21.23
2022-11-25T09:28:54.024Z,16.03
2022-11-25T09:31:22.548Z,13.87
2022-11-25T09:33:52.453Z,16.03
2022-11-25T09:36:21.538Z,18.60
2022-11-25T09:38:49.588Z,14.43
2022-11-25T09:41:47.080Z,18.27
2022-11-25T09:44:47.195Z,13.53
2022-11-25T09:47:21.651Z,12.47
2022-11-25T09:50:03.977Z,16.47
2022-11-25T09:52:38.610Z,13.70
2022-11-25T09:55:11.358Z,11.93
2022-11-25T09:57:59.096Z,8.20
2022-11-25T10:00:36.262Z,11.60
2022-11-25T10:03:07.982Z,19.33
2022-11-25T10:05:42.099Z,6.43
2022-11-25T10:08:13.753Z,11.23
2022-11-25T10:10:46.173Z,8.73
2022-11-25T10:13:19.825Z,10.43
2022-11-25T10:15:51.495Z,10.33
2022-11-25T10:18:26.125Z,8.37
2022-11-25T10:20:55.983Z,11.60
2022-11-25T10:23:28.724Z,8.30
2022-11-25T10:26:00.263Z,8.70
2022-11-25T10:28:32.385Z,15.80
2022-11-25T10:31:05.711Z,7.23
2022-11-25T10:33:37.144Z,8.50
2022-11-25T10:36:15.400Z,16.57
2022-11-25T10:38:50.076Z,9.63
2022-11-25T10:41:21.985Z,9.10
2022-11-25T10:43:50.222Z,8.57
2022-11-25T10:46:49.657Z,10.53
2022-11-25T10:49:25.886Z,9.70
2022-11-25T10:51:57.429Z,12.20
2022-11-25T10:54:28.144Z,14.03
2022-11-25T10:56:58.080Z,7.27
2022-11-25T10:59:29.501Z,7.90
2022-11-25T11:02:19.325Z,8.73
2022-11-25T11:04:54.525Z,7.33
2022-11-25T11:07:24.879Z,10.27
2022-11-25T11:09:53.185Z,8.57
2022-11-25T11:12:24.333Z,11.07
2022-11-25T11:14:52.757Z,10.53
2022-11-25T11:17:37.490Z,11.00
2022-11-25T11:20:20.582Z,11.43
2022-11-25T11:22:56.027Z,11.47
2022-11-25T11:25:33.131Z,9.57
2022-11-25T11:28:02.166Z,5.93
2022-11-25T11:30:32.819Z,7.10
2022-11-25T11:33:06.524Z,6.93
2022-11-25T11:35:51.243Z,7.07
2022-11-25T11:38:32.586Z,5.83
2022-11-25T11:41:09.827Z,5.60
2022-11-25T11:43:54.369Z,6.13
2022-11-25T11:46:33.778Z,6.23
2022-11-25T11:49:16.858Z,8.93
2022-11-25T11:51:56.556Z,9.37
2022-11-25T11:54:33.901Z,10.93
2022-11-25T11:57:05.684Z,11.13
2022-11-25T11:59:49.929Z,7.73
2022-11-25T12:02:30.756Z,8.33
2022-11-25T12:05:07.062Z,4.00
2022-11-25T12:07:42.769Z,4.90
2022-11-25T12:10:23.196Z,9.30
2022-11-25T12:12:55.980Z,8.63
2022-11-25T12:15:34.638Z,7.43
2022-11-25T12:18:10.162Z,5.83
2022-11-25T12:20:46.162Z,11.03
2022-11-25T12:23:20.932Z,4.10
2022-11-25T12:25:52.972Z,5.53
2022-11-25T12:28:27.244Z,8.73
2022-11-25T12:31:05.612Z,5.30
2022-11-25T12:33:44.970Z,6.07
2022-11-25T12:36:17.734Z,9.50
2022-11-25T12:38:50.252Z,10.17
2022-11-25T12:41:26.091Z,5.90
2022-11-25T12:44:00.451Z,6.23
2022-11-25T12:46:37.951Z,10.60
2022-11-25T12:49:08.470Z,5.03
2022-11-25T12:52:16.852Z,6.97
2022-11-25T12:55:05.578Z,4.90
2022-11-25T12:58:12.385Z,4.70
2022-11-25T13:01:09.680Z,8.00
2022-11-25T13:04:34.897Z,7.27
2022-11-25T13:07:19.958Z,6.50
2022-11-25T13:10:14.712Z,5.87
2022-11-25T13:12:55.497Z,6.47
2022-11-25T13:15:28.979Z,4.50
2022-11-25T13:18:01.167Z,5.23
2022-11-25T13:20:46.031Z,5.33
2022-11-25T13:23:29.252Z,7.17
2022-11-25T13:26:32.297Z,6.47
2022-11-25T13:29:02.267Z,3.83
2022-11-25T13:31:33.540Z,4.47
2022-11-25T13:34:23.827Z,7.37
2022-11-25T13:36:53.518Z,4.90
2022-11-25T13:39:31.640Z,6.90
2022-11-25T13:42:06.181Z,7.47
2022-11-25T13:44:49.838Z,11.13
2022-11-25T13:47:34.114Z,7.13
2022-11-25T13:50:03.428Z,8.57
2022-11-25T13:52:37.136Z,6.80
2022-11-25T13:55:27.287Z,6.67
2022-11-25T13:58:19.138Z,6.73
2022-11-25T14:01:26.190Z,7.23
2022-11-25T14:04:00.331Z,10.37
2022-11-25T14:06:51.356Z,9.27
2022-11-25T14:09:32.214Z,4.20
2022-11-25T14:12:14.998Z,7.07
2022-11-25T14:15:05.800Z,7.37
2022-11-25T14:18:05.153Z,7.03
2022-11-25T14:20:42.288Z,12.97
2022-11-25T14:23:48.126Z,17.10
2022-11-25T14:26:48.833Z,7.73
2022-11-25T14:29:21.872Z,6.40
2022-11-25T14:31:54.529Z,7.70
2022-11-25T14:34:28.819Z,6.17
2022-11-25T14:37:02.044Z,6.63
2022-11-25T14:39:35.178Z,6.90
2022-11-25T14:42:07.949Z,9.17
2022-11-25T14:44:41.794Z,9.17
2022-11-25T14:47:09.800Z,9.27
2022-11-25T14:50:05.255Z,9.37
2022-11-25T14:52:38.025Z,11.70
2022-11-25T14:55:07.633Z,9.60
2022-11-25T14:57:38.694Z,6.40
2022-11-25T15:00:09.211Z,8.70
2022-11-25T15:02:40.888Z,9.60
2022-11-25T15:05:20.647Z,18.13
2022-11-25T15:07:58.644Z,22.17
2022-11-25T15:10:34.622Z,19.70
2022-11-25T15:13:12.757Z,15.87
2022-11-25T15:15:41.020Z,15.03
2022-11-25T15:18:12.466Z,11.73
2022-11-25T15:20:41.793Z,13.80
2022-11-25T15:23:16.882Z,13.87
2022-11-25T15:25:51.268Z,14.80
2022-11-25T15:28:19.286Z,15.13
2022-11-25T15:30:58.258Z,12.87
2022-11-25T15:33:28.297Z,13.23
2022-11-25T15:35:57.762Z,11.50
2022-11-25T15:38:42.009Z,24.90
2022-11-25T15:41:33.187Z,29.03
2022-11-25T15:44:03.950Z,32.43
2022-11-25T15:46:34.793Z,35.37
2022-11-25T15:49:05.553Z,34.33
2022-11-25T15:51:42.419Z,27.83
2022-11-25T15:54:19.507Z,29.80
2022-11-25T15:56:50.205Z,12.07
2022-11-25T15:59:41.999Z,16.63
2022-11-25T16:02:34.034Z,13.83
2022-11-25T16:05:24.512Z,22.13
2022-11-25T16:08:23.167Z,11.50
2022-11-25T16:10:54.460Z,20.93
2022-11-25T16:13:30.504Z,11.30
2022-11-25T16:16:03.301Z,11.40
2022-11-25T16:18:42.348Z,14.10
2022-11-25T16:21:13.555Z,13.10
2022-11-25T16:23:47.192Z,8.83
2022-11-25T16:26:18.083Z,10.93
2022-11-25T16:28:53.915Z,8.60
2022-11-25T16:31:22.854Z,6.73
2022-11-25T16:33:53.846Z,9.00
2022-11-25T16:36:21.818Z,5.13
2022-11-25T16:38:55.251Z,7.17
2022-11-25T16:41:25.416Z,4.87
2022-11-25T16:43:57.076Z,15.13
2022-11-25T16:46:27.750Z,20.17
2022-11-25T16:48:55.798Z,16.00
2022-11-25T16:51:25.318Z,13.73
2022-11-25T16:53:54.660Z,11.77
2022-11-25T16:56:26.537Z,19.70
2022-11-25T16:58:55.136Z,17.00
2022-11-25T17:01:25.752Z,11.87
2022-11-25T17:03:53.815Z,10.50
2022-11-25T17:06:23.905Z,14.37
2022-11-25T17:08:52.657Z,11.20
2022-11-25T17:11:27.991Z,10.27
2022-11-25T17:13:57.349Z,17.77
2022-11-25T17:16:27.906Z,14.67
2022-11-25T17:18:58.426Z,6.73
2022-11-25T17:21:28.754Z,6.70
2022-11-25T17:24:02.549Z,7.13
2022-11-25T17:26:38.421Z,8.37
2022-11-25T17:29:09.638Z,11.90
2022-11-25T17:31:38.959Z,8.67
2022-11-25T17:34:07.201Z,11.10
2022-11-25T17:36:35.161Z,10.10
2022-11-25T17:39:03.100Z,7.93
2022-11-25T17:41:39.466Z,11.03
2022-11-25T17:44:13.460Z,8.53
2022-11-25T17:46:41.401Z,23.03
2022-11-25T17:49:15.346Z,16.97
2022-11-25T17:51:43.585Z,14.53
2022-11-25T17:54:11.784Z,14.10
2022-11-25T17:56:44.650Z,13.87
2022-11-25T17:59:26.393Z,17.23
2022-11-25T18:01:55.989Z,14.57
2022-11-25T18:04:26.617Z,19.37
2022-11-25T18:06:55.169Z,13.97
2022-11-25T18:09:23.222Z,17.63
2022-11-25T18:11:54.663Z,16.03
2022-11-25T18:14:26.718Z,13.33
2022-11-25T18:16:55.825Z,13.87
2022-11-25T18:19:23.835Z,14.73
2022-11-25T18:21:51.784Z,9.03
2022-11-25T18:24:19.723Z,11.73
2022-11-25T18:26:50.304Z,11.67
2022-11-25T18:29:24.778Z,15.43
2022-11-25T18:31:55.820Z,13.67
2022-11-25T18:34:25.111Z,9.37
2022-11-25T18:36:53.752Z,10.37
2022-11-25T18:39:21.768Z,11.00
2022-11-25T18:41:53.848Z,8.73
2022-11-25T18:44:26.538Z,15.80
2022-11-25T18:46:55.132Z,15.03
2022-11-25T18:49:23.866Z,11.63
2022-11-25T18:51:51.984Z,15.47
2022-11-25T18:54:20.047Z,13.97
2022-11-25T18:56:52.533Z,14.23
2022-11-25T18:59:27.178Z,13.90
2022-11-25T19:01:55.891Z,14.57
2022-11-25T19:04:23.973Z,15.30
2022-11-25T19:06:52.222Z,14.87
2022-11-25T19:09:20.223Z,14.93
2022-11-25T19:11:52.370Z,13.67
2022-11-25T19:14:29.001Z,12.20
2022-11-25T19:16:59.991Z,14.90
2022-11-25T19:19:28.345Z,15.00
2022-11-25T19:21:56.394Z,15.13
2022-11-25T19:24:24.417Z,16.87
2022-11-25T19:26:54.799Z,11.67
2022-11-25T19:29:24.977Z,15.53
2022-11-25T19:31:56.075Z,23.53
2022-11-25T19:34:28.275Z,16.87
2022-11-25T19:36:56.275Z,14.10
2022-11-25T19:39:24.399Z,11.83
2022-11-25T19:41:52.672Z,14.50
2022-11-25T19:44:20.693Z,13.20
2022-11-25T19:47:14.367Z,9.37
2022-11-25T19:49:40.278Z,9.93
2022-11-25T19:52:16.064Z,16.40
2022-11-25T19:54:44.360Z,13.10
2022-11-25T19:57:17.737Z,16.27
2022-11-25T19:59:46.438Z,15.90
2022-11-25T20:02:16.628Z,22.37
2022-11-25T20:04:48.058Z,18.37
2022-11-25T20:07:18.934Z,19.83
2022-11-25T20:09:47.248Z,15.30
2022-11-25T20:12:21.625Z,19.93
2022-11-25T20:14:50.119Z,19.00
2022-11-25T20:17:25.589Z,18.73
2022-11-25T20:19:57.432Z,14.43
2022-11-25T20:22:29.067Z,17.47
2022-11-25T20:24:57.886Z,19.03
2022-11-25T20:27:28.670Z,17.10
2022-11-25T20:29:57.076Z,16.70
2022-11-25T20:32:28.902Z,21.23
2022-11-25T20:34:59.462Z,26.43
2022-11-25T20:37:30.286Z,18.67
2022-11-25T20:40:01.010Z,21.93
2022-11-25T20:42:29.108Z,16.87
2022-11-25T20:44:58.123Z,25.50
2022-11-25T20:47:27.385Z,20.77
2022-11-25T20:49:55.377Z,21.60
2022-11-25T20:52:28.777Z,18.13
2022-11-25T20:54:57.125Z,19.67
2022-11-25T20:57:25.149Z,20.27
2022-11-25T20:59:53.102Z,19.13
2022-11-25T21:02:21.698Z,17.90
2022-11-25T21:04:49.855Z,22.80
2022-11-25T21:07:18.656Z,24.97
2022-11-25T21:09:48.236Z,20.50
2022-11-25T21:12:19.436Z,21.47
2022-11-25T21:14:47.861Z,22.77
2022-11-25T21:17:15.874Z,20.90
2022-11-25T21:19:43.831Z,20.73
2022-11-25T21:22:14.533Z,20.17
2022-11-25T21:24:44.614Z,20.53
2022-11-25T21:27:16.885Z,21.80
2022-11-25T21:29:46.368Z,19.63
2022-11-25T21:32:20.774Z,21.03
2022-11-25T21:34:49.126Z,23.57
2022-11-25T21:37:17.855Z,25.57
2022-11-25T21:39:46.099Z,17.00
2022-11-25T21:42:20.139Z,25.03
2022-11-25T21:44:49.925Z,23.47
2022-11-25T21:47:19.659Z,25.43
2022-11-25T21:49:47.787Z,26.30
2022-11-25T21:52:16.557Z,24.17
2022-11-25T21:54:45.020Z,25.60
2022-11-25T21:57:17.651Z,23.87
2022-11-25T21:59:46.176Z,22.83
2022-11-25T22:02:19.485Z,22.43
2022-11-25T22:04:47.830Z,28.77
2022-11-25T22:07:16.024Z,27.43
2022-11-25T22:09:44.442Z,24.37
2022-11-25T22:12:27.773Z,24.97
2022-11-25T22:14:56.592Z,24.77
2022-11-25T22:17:25.878Z,25.50
2022-11-25T22:19:54.597Z,26.33
2022-11-25T22:22:22.719Z,28.00
2022-11-25T22:24:50.835Z,28.43
2022-11-25T22:27:23.462Z,31.90
2022-11-25T22:29:52.856Z,28.10
2022-11-25T22:32:20.828Z,25.87
2022-11-25T22:34:48.844Z,26.50
2022-11-25T22:37:21.356Z,26.17
2022-11-25T22:39:49.856Z,29.37
2022-11-25T22:42:25.580Z,28.57
2022-11-25T22:44:55.580Z,29.07
2022-11-25T22:47:28.901Z,26.57
2022-11-25T22:49:57.260Z,29.53
2022-11-25T22:52:28.238Z,33.27
2022-11-25T22:54:58.798Z,31.60
2022-11-25T22:57:28.115Z,28.63
2022-11-25T22:59:56.082Z,31.83
2022-11-25T23:02:28.269Z,22.90
2022-11-25T23:04:57.336Z,29.67
2022-11-25T23:07:25.427Z,24.93
2022-11-25T23:09:54.092Z,35.03
2022-11-25T23:12:22.051Z,31.43
2022-11-25T23:14:51.405Z,30.30
2022-11-25T23:17:22.665Z,28.17
2022-11-25T23:19:51.378Z,34.70
2022-11-25T23:22:19.531Z,31.83
2022-11-25T23:24:49.925Z,30.37
2022-11-25T23:27:18.115Z,35.47
2022-11-25T23:29:46.102Z,33.17
2022-11-25T23:32:20.905Z,37.63
2022-11-25T23:34:51.712Z,31.63
2022-11-25T23:37:19.898Z,35.23
2022-11-25T23:39:52.350Z,36.53
2022-11-25T23:42:21.774Z,37.90
2022-11-25T23:44:50.054Z,36.40
2022-11-25T23:47:22.015Z,37.33
2022-11-25T23:49:53.070Z,36.90
2022-11-25T23:52:25.272Z,38.07
2022-11-25T23:54:54.537Z,34.20
2022-11-25T23:57:25.299Z,39.00
2022-11-25T23:59:53.629Z,37.27
